Time;durP1;ratioP1;P1;durP2;ratioP2;P2;SDS_P1;SDS_P2;PMS_P1;PMS_P2;Temp;Humidity;BMP_temperature;BMP_pressure;BME280_temperature;BME280_humidity;BME280_pressure;Samples;Min_cycle;Max_cycle;Signal;HPM_P1;HPM_P2
2023/07/12 00:00:22;;;;;;;2.25;1.63;;;23.20;68.40;;;;;;5092879;28;20127;-36
2023/07/12 00:02:50;;;;;;;2.30;1.50;;;;;;;;;;5092769;28;20584;-34
2023/07/12 00:05:16;;;;;;;3.45;1.80;;;24.90;79.40;;;;;;5090575;28;20131;-39
2023/07/12 00:07:45;;;;;;;1.70;1.33;;;23.90;78.50;;;;;;5072556;28;20055;-39
2023/07/12 00:10:14;;;;;;;2.22;1.48;;;24.10;64.10;;;;;;5072475;28;20528;-35
2023/07/12 00:12:41;;;;;;;2.22;1.42;;;24.10;79.60;;;;;;5072399;28;20098;-36
2023/07/12 00:15:10;;;;;;;2.17;1.42;;;24.10;64.10;;;;;;5072409;28;20131;-36
2023/07/12 00:17:38;;;;;;;2.30;1.63;;;23.90;78.60;;;;;;5072291;28;20497;-32
2023/07/12 00:20:14;;;;;;;1.92;1.40;;;23.20;63.60;;;;;;5072264;28;20048;-35
2023/07/12 00:22:40;;;;;;;1.63;1.40;;;23.90;67.30;;;;;;5083731;28;20048;-33
2023/07/12 00:25:08;;;;;;;2.92;1.60;;;24.30;79.70;;;;;;5092273;28;20135;-32
2023/07/12 00:27:34;;;;;;;1.90;1.60;;;24.40;73.80;;;;;;5092392;28;20130;-34
2023/07/12 00:30:01;;;;;;;2.28;1.77;;;24.00;78.60;;;;;;5092075;28;20134;-32
2023/07/12 00:32:28;;;;;;;2.53;1.52;;;24.30;78.70;;;;;;5092140;28;20125;-32
2023/07/12 00:34:56;;;;;;;2.05;1.50;;;;;;;;;;5092220;28;20044;-32
2023/07/12 00:37:23;;;;;;;2.45;1.50;;;;;;;;;;5091030;28;20055;-35
2023/07/12 00:39:50;;;;;;;2.40;1.40;;;23.60;73.40;;;;;;5092143;28;20728;-32
2023/07/12 00:42:19;;;;;;;2.28;1.50;;;24.10;69.60;;;;;;5092050;28;20048;-35
2023/07/12 00:44:48;;;;;;;2.05;1.60;;;24.50;64.30;;;;;;5092206;28;20139;-35
2023/07/12 00:47:15;;;;;;;2.83;1.60;;;23.90;74.20;;;;;;5092427;28;20047;-33
2023/07/12 00:49:42;;;;;;;1.92;1.42;;;24.60;76.70;;;;;;5091903;28;20050;-33
2023/07/12 00:52:12;;;;;;;2.17;1.80;;;24.10;78.70;;;;;;5091911;28;20048;-32
2023/07/12 00:54:50;;;;;;;3.03;1.70;;;23.50;79.10;;;;;;5080112;28;20055;-32
2023/07/12 00:57:17;;;;;;;2.58;1.80;;;;;;;;;;5071731;28;20084;-35
2023/07/12 00:59:44;;;;;;;1.63;1.40;;;23.90;75.60;;;;;;5071847;28;20048;-35
2023/07/12 01:02:11;;;;;;;2.05;1.70;;;;;;;;;;5071150;28;20476;-36
2023/07/12 01:04:40;;;;;;;1.88;1.38;;;23.90;75.80;;;;;;5071745;28;20147;-33
2023/07/12 01:07:07;;;;;;;1.98;1.42;;;24.00;79.40;;;;;;5071659;28;20139;-32
2023/07/12 01:09:35;;;;;;;1.55;1.40;;;23.50;66.20;;;;;;5071587;28;20051;-36
2023/07/12 01:12:03;;;;;;;2.30;1.70;;;23.90;75.80;;;;;;5071732;28;20124;-32
2023/07/12 01:14:30;;;;;;;2.30;1.58;;;24.50;67.60;;;;;;5071063;28;20045;-33
2023/07/12 01:16:58;;;;;;;3.42;1.83;;;24.10;69.30;;;;;;5071814;28;20135;-32
2023/07/12 01:19:25;;;;;;;1.90;1.48;;;;;;;;;;5071608;28;20059;-32
2023/07/12 01:21:54;;;;;;;2.50;1.50;;;23.50;71.90;;;;;;5072704;28;20119;-32
2023/07/12 01:24:21;;;;;;;1.60;1.48;;;;;;;;;;5071167;28;20056;-32
2023/07/12 01:26:49;;;;;;;1.75;1.30;;;23.60;65.20;;;;;;5071330;28;20132;-33
2023/07/12 01:29:15;;;;;;;1.45;1.25;;;23.80;78.60;;;;;;5071448;28;20132;-32
2023/07/12 01:31:42;;;;;;;2.22;1.45;;;24.50;65.90;;;;;;5076641;28;20119;-36
2023/07/12 01:34:09;;;;;;;1.75;1.35;;;24.00;75.50;;;;;;5091472;28;20083;-33
2023/07/12 01:36:36;;;;;;;2.13;1.40;;;;;;;;;;5076983;28;20127;-36
2023/07/12 01:39:05;;;;;;;1.60;1.20;;;24.00;64.00;;;;;;5091812;28;20052;-32
2023/07/12 01:41:32;;;;;;;1.73;1.30;;;23.90;64.10;;;;;;5091435;28;20144;-32
2023/07/12 01:43:59;;;;;;;1.88;1.27;;;24.20;67.60;;;;;;5095237;28;20131;-35
2023/07/12 01:46:26;;;;;;;2.10;1.40;;;23.90;78.70;;;;;;5095679;28;20130;-32
2023/07/12 01:48:53;;;;;;;1.98;1.33;;;;;;;;;;5095571;28;20127;-34
2023/07/12 01:51:20;;;;;;;1.75;1.40;;;23.80;78.50;;;;;;5094583;28;20131;-32
2023/07/12 01:53:47;;;;;;;3.22;1.40;;;;;;;;;;5095170;28;20048;-35
2023/07/12 01:56:16;;;;;;;1.80;1.30;;;24.20;79.40;;;;;;5095257;28;20076;-32
2023/07/12 01:58:43;;;;;;;3.40;1.73;;;23.70;78.60;;;;;;5095695;28;20131;-32
2023/07/12 02:01:09;;;;;;;2.35;1.45;;;23.90;78.40;;;;;;5094995;28;20044;-33
2023/07/12 02:03:36;;;;;;;1.92;1.40;;;;;;;;;;5094957;28;20058;-32
2023/07/12 02:06:03;;;;;;;1.80;1.30;;;;;;;;;;5095057;28;20060;-37
2023/07/12 02:08:30;;;;;;;1.73;1.50;;;24.80;79.90;;;;;;5095298;28;20123;-32
2023/07/12 02:10:58;;;;;;;2.97;1.40;;;;;;;;;;5094793;28;20131;-32
2023/07/12 02:13:26;;;;;;;2.13;1.30;;;23.60;78.50;;;;;;5094885;28;20405;-32
2023/07/12 02:15:53;;;;;;;1.40;1.30;;;23.30;79.00;;;;;;5095168;28;20047;-32
2023/07/12 02:18:20;;;;;;;2.33;1.60;;;;;;;;;;5094559;28;20044;-35
2023/07/12 02:20:46;;;;;;;2.10;1.30;;;23.90;78.90;;;;;;5094981;28;20048;-33
2023/07/12 02:23:14;;;;;;;1.80;1.40;;;;;;;;;;5094325;28;20055;-32
2023/07/12 02:25:40;;;;;;;2.00;1.50;;;24.10;79.00;;;;;;5095143;28;20043;-33
2023/07/12 02:28:07;;;;;;;1.63;1.30;;;;;;;;;;5094731;28;20055;-33
2023/07/12 02:30:37;;;;;;;1.75;1.33;;;23.10;73.20;;;;;;5094986;28;20056;-33
2023/07/12 02:33:03;;;;;;;2.28;1.30;;;24.00;79.10;;;;;;5093981;28;20052;-31
2023/07/12 02:35:31;;;;;;;3.25;1.33;;;24.00;74.90;;;;;;5094507;28;20127;-34
2023/07/12 02:37:58;;;;;;;1.55;1.20;;;;;;;;;;5093809;28;20051;-34
2023/07/12 02:40:25;;;;;;;1.58;1.23;;;24.00;79.30;;;;;;5094316;28;20523;-33
2023/07/12 02:42:52;;;;;;;1.88;1.40;;;;;;;;;;5094357;28;20492;-35
2023/07/12 02:45:19;;;;;;;2.28;1.40;;;23.60;78.30;;;;;;5094554;28;20131;-32
2023/07/12 02:47:47;;;;;;;1.50;1.20;;;23.70;70.10;;;;;;5094404;28;20044;-32
2023/07/12 02:50:14;;;;;;;1.50;1.30;;;23.40;78.70;;;;;;5094034;28;20131;-33
2023/07/12 02:52:41;;;;;;;2.45;1.30;;;;;;;;;;5093732;28;20052;-36
2023/07/12 02:55:08;;;;;;;2.30;1.30;;;24.00;79.40;;;;;;5094504;28;20048;-33
2023/07/12 02:57:35;;;;;;;2.17;1.40;;;;;;;;;;5094264;28;20058;-34
2023/07/12 03:00:02;;;;;;;1.63;1.45;;;23.90;78.60;;;;;;5094456;28;20044;-33
2023/07/12 03:02:30;;;;;;;1.40;1.15;;;;;;;;;;5093417;28;20500;-36
2023/07/12 03:04:58;;;;;;;3.58;1.35;;;;;;;;;;5088444;28;20040;-32
2023/07/12 03:07:25;;;;;;;1.80;1.30;;;;;;;;;;5073848;28;20515;-36
2023/07/12 03:09:55;;;;;;;1.50;1.17;;;23.80;78.90;;;;;;5073712;28;20508;-32
2023/07/12 03:12:22;;;;;;;1.30;1.20;;;23.90;78.40;;;;;;5073566;28;20211;-32
2023/07/12 03:14:49;;;;;;;1.75;1.30;;;24.10;79.40;;;;;;5073645;28;20135;-32
2023/07/12 03:17:16;;;;;;;2.38;1.30;;;;;;;;;;5073696;28;20128;-33
2023/07/12 03:19:43;;;;;;;2.22;1.30;;;24.70;79.30;;;;;;5073718;28;20140;-32
2023/07/12 03:22:11;;;;;;;3.00;1.48;;;23.80;63.50;;;;;;5091598;28;20127;-35
2023/07/12 03:24:38;;;;;;;3.03;1.30;;;23.60;72.90;;;;;;5093697;28;20135;-34
2023/07/12 03:27:05;;;;;;;2.92;1.50;;;23.80;78.70;;;;;;5093642;28;20052;-32
2023/07/12 03:29:32;;;;;;;2.40;1.45;;;23.90;65.60;;;;;;5093775;28;20070;-34
2023/07/12 03:31:58;;;;;;;2.22;1.33;;;23.50;78.50;;;;;;5093302;28;20573;-32
2023/07/12 03:34:25;;;;;;;2.08;1.40;;;23.40;78.50;;;;;;5093218;28;20056;-32
2023/07/12 03:36:52;;;;;;;1.83;1.13;;;;;;;;;;5091457;28;20123;-35
2023/07/12 03:39:20;;;;;;;1.90;1.45;;;23.50;78.50;;;;;;5093575;28;20058;-32
2023/07/12 03:41:48;;;;;;;1.92;1.30;;;;;;;;;;5093454;28;20071;-33
2023/07/12 03:44:15;;;;;;;2.03;1.45;;;;;;;;;;5092811;28;20101;-33
2023/07/12 03:46:41;;;;;;;1.70;1.27;;;24.00;67.10;;;;;;5093362;28;20130;-33
2023/07/12 03:49:08;;;;;;;1.88;1.20;;;;;;;;;;5093072;28;20140;-35
2023/07/12 03:51:35;;;;;;;1.40;1.10;;;23.10;78.40;;;;;;5092756;28;20128;-33
2023/07/12 03:54:02;;;;;;;1.90;1.30;;;;;;;;;;5073191;28;20144;-34
2023/07/12 03:56:30;;;;;;;1.65;1.30;;;24.40;79.50;;;;;;5072868;28;20056;-32
2023/07/12 03:58:57;;;;;;;3.38;1.40;;;23.70;78.30;;;;;;5072626;28;20040;-34
2023/07/12 04:01:24;;;;;;;2.20;1.35;;;23.70;79.00;;;;;;5072498;28;20055;-33
2023/07/12 04:03:51;;;;;;;2.38;1.30;;;;;;;;;;5072674;28;20127;-32
2023/07/12 04:06:17;;;;;;;1.75;1.10;;;23.30;78.30;;;;;;5071639;28;20139;-32
2023/07/12 04:08:44;;;;;;;2.55;1.40;;;23.50;78.20;;;;;;5074050;28;20048;-33
2023/07/12 04:11:18;;;;;;;1.80;1.20;;;23.80;63.50;;;;;;5072497;28;20052;-36
2023/07/12 04:13:46;;;;;;;2.03;1.27;;;23.80;78.50;;;;;;5072399;28;20044;-32
2023/07/12 04:16:15;;;;;;;1.63;1.13;;;23.80;70.20;;;;;;5072484;28;20135;-33
2023/07/12 04:18:42;;;;;;;2.35;1.40;;;24.10;78.60;;;;;;5072571;28;20102;-32
2023/07/12 04:21:09;;;;;;;1.90;1.33;;;23.70;78.60;;;;;;5072076;28;20616;-32
2023/07/12 04:23:36;;;;;;;2.10;1.23;;;;;;;;;;5072103;28;20048;-32
2023/07/12 04:26:03;;;;;;;1.85;1.30;;;24.10;71.20;;;;;;5085814;28;20532;-33
2023/07/12 04:28:31;;;;;;;1.98;1.23;;;;;;;;;;5092374;28;20079;-33
2023/07/12 04:31:02;;;;;;;3.13;1.40;;;23.70;63.40;;;;;;5092526;28;20075;-35
2023/07/12 04:33:30;;;;;;;4.70;1.40;;;;;;;;;;5092320;28;20425;-35
2023/07/12 04:35:56;;;;;;;1.80;1.25;;;23.70;78.10;;;;;;5091931;28;20412;-32
2023/07/12 04:38:23;;;;;;;2.97;1.40;;;24.60;79.60;;;;;;5092021;28;20134;-33
2023/07/12 04:40:54;;;;;;;2.35;1.30;;;23.70;63.30;;;;;;5083494;28;20501;-34
2023/07/12 04:43:20;;;;;;;1.98;1.30;;;23.20;78.80;;;;;;5073195;28;20102;-32
2023/07/12 04:45:47;;;;;;;2.67;1.45;;;23.40;78.20;;;;;;5092147;28;20055;-34
2023/07/12 04:48:15;;;;;;;2.20;1.40;;;23.40;68.30;;;;;;5092245;28;20123;-33
2023/07/12 04:50:43;;;;;;;2.05;1.40;;;;;;;;;;5092093;28;20160;-32
2023/07/12 04:53:12;;;;;;;2.20;1.30;;;;;;;;;;5092026;28;20082;-32
2023/07/12 04:55:39;;;;;;;2.85;1.50;;;23.40;68.20;;;;;;5091781;28;20055;-33
2023/07/12 04:58:06;;;;;;;2.08;1.35;;;23.50;71.10;;;;;;5072729;28;20568;-33
2023/07/12 05:00:33;;;;;;;2.45;1.30;;;24.00;79.20;;;;;;5071941;28;20127;-33
2023/07/12 05:03:00;;;;;;;2.50;1.48;;;23.40;78.90;;;;;;5071347;28;20044;-31
2023/07/12 05:05:28;;;;;;;3.38;1.40;;;23.40;78.70;;;;;;5071720;28;20443;-32
2023/07/12 05:07:55;;;;;;;2.20;1.25;;;23.60;77.20;;;;;;5071421;28;20136;-33
2023/07/12 05:10:22;;;;;;;3.35;1.50;;;24.80;77.70;;;;;;5071714;28;20452;-32
2023/07/12 05:12:49;;;;;;;2.17;1.63;;;;;;;;;;5072724;28;20040;-34
2023/07/12 05:15:16;;;;;;;2.65;1.40;;;22.80;77.80;;;;;;5071452;28;20056;-32
2023/07/12 05:17:43;;;;;;;1.60;1.15;;;24.10;66.10;;;;;;5071625;28;20044;-33
2023/07/12 05:20:12;;;;;;;2.28;1.40;;;23.60;63.20;;;;;;5071296;28;20509;-33
2023/07/12 05:22:40;;;;;;;4.70;1.77;;;23.60;78.90;;;;;;5069716;28;20569;-33
2023/07/12 05:25:07;;;;;;;3.03;1.38;;;23.60;68.70;;;;;;5071605;28;20131;-32
2023/07/12 05:27:34;;;;;;;2.78;1.30;;;23.30;69.40;;;;;;5071455;28;20486;-32
2023/07/12 05:30:01;;;;;;;3.15;1.60;;;23.10;77.60;;;;;;5072792;28;20131;-32
2023/07/12 05:32:28;;;;;;;2.42;1.40;;;24.50;78.70;;;;;;5082580;28;20123;-36
2023/07/12 05:34:54;;;;;;;2.95;1.40;;;23.20;78.50;;;;;;5086664;28;20130;-32
2023/07/12 05:37:22;;;;;;;2.30;1.50;;;23.20;78.00;;;;;;5078220;28;20132;-32
2023/07/12 05:39:50;;;;;;;2.38;1.42;;;23.30;78.00;;;;;;5080168;28;21495;-33
2023/07/12 05:42:17;;;;;;;2.17;1.30;;;23.40;78.00;;;;;;5070625;28;20123;-32
2023/07/12 05:44:44;;;;;;;3.15;1.50;;;;;;;;;;5070597;28;20119;-35
2023/07/12 05:47:11;;;;;;;2.00;1.45;;;23.50;78.00;;;;;;5079374;28;20052;-32
2023/07/12 05:49:38;;;;;;;2.13;1.40;;;23.00;78.70;;;;;;5081598;28;20055;-33
2023/07/12 05:52:05;;;;;;;2.55;1.48;;;23.80;63.20;;;;;;5080927;28;20048;-34
2023/07/12 05:54:32;;;;;;;2.65;1.45;;;;;;;;;;5080042;28;20040;-36
2023/07/12 05:57:00;;;;;;;2.90;1.40;;;23.40;78.00;;;;;;5073656;28;20131;-35
2023/07/12 05:59:27;;;;;;;2.70;1.58;;;23.30;77.90;;;;;;5091170;28;20127;-33
2023/07/12 06:01:53;;;;;;;3.03;1.40;;;23.60;78.10;;;;;;5077471;28;20416;-32
2023/07/12 06:04:20;;;;;;;3.08;1.55;;;23.30;65.00;;;;;;5070875;28;20136;-33
2023/07/12 06:06:47;;;;;;;1.90;1.35;;;23.50;65.80;;;;;;5071207;28;20480;-32
2023/07/12 06:09:14;;;;;;;3.40;1.58;;;23.30;78.00;;;;;;5071522;28;20052;-33
2023/07/12 06:11:41;;;;;;;3.58;1.52;;;;;;;;;;5071173;28;20062;-34
2023/07/12 06:14:09;;;;;;;2.70;1.55;;;23.20;64.70;;;;;;5070872;28;20123;-34
2023/07/12 06:16:36;;;;;;;3.25;1.60;;;23.40;77.90;;;;;;5075402;28;20146;-30
2023/07/12 06:19:03;;;;;;;3.65;1.67;;;23.40;78.20;;;;;;5091584;28;20056;-31
2023/07/12 06:21:29;;;;;;;2.33;1.30;;;23.40;77.90;;;;;;5091598;28;20059;-31
2023/07/12 06:23:59;;;;;;;2.88;1.50;;;24.00;78.60;;;;;;5090861;28;20052;-31
2023/07/12 06:26:26;;;;;;;3.92;1.58;;;23.10;77.80;;;;;;5091333;28;20087;-31
2023/07/12 06:28:54;;;;;;;3.20;1.48;;;;;;;;;;5092975;28;20135;-30
2023/07/12 06:31:22;;;;;;;3.05;1.60;;;23.90;78.10;;;;;;5094916;28;20051;-31
2023/07/12 06:33:49;;;;;;;3.45;1.42;;;22.80;77.90;;;;;;5093854;28;20135;-31
2023/07/12 06:36:15;;;;;;;2.60;1.45;;;23.70;65.70;;;;;;5094335;28;20123;-35
2023/07/12 06:38:42;;;;;;;2.92;1.63;;;23.60;78.40;;;;;;5095050;28;20423;-31
2023/07/12 06:41:09;;;;;;;3.70;1.90;;;23.50;78.30;;;;;;5094719;28;20130;-31
2023/07/12 06:43:36;;;;;;;2.70;1.50;;;;;;;;;;5094408;28;20048;-34
2023/07/12 06:46:03;;;;;;;2.53;1.58;;;23.40;77.80;;;;;;5094531;28;20126;-31
2023/07/12 06:48:31;;;;;;;3.90;1.70;;;24.40;71.00;;;;;;5088223;28;20044;-31
2023/07/12 06:50:58;;;;;;;3.88;1.48;;;23.60;69.30;;;;;;5074337;28;20139;-32
2023/07/12 06:53:26;;;;;;;3.65;1.50;;;24.20;78.00;;;;;;5074145;28;20481;-31
2023/07/12 06:55:53;;;;;;;3.42;1.70;;;23.40;78.30;;;;;;5074068;28;20049;-31
2023/07/12 06:58:20;;;;;;;2.78;1.60;;;23.90;78.60;;;;;;5073974;28;20048;-32
2023/07/12 07:00:47;;;;;;;3.03;1.60;;;24.80;78.00;;;;;;5074419;28;20132;-32
2023/07/12 07:03:14;;;;;;;3.90;2.03;;;23.60;78.20;;;;;;5073903;28;20051;-33
2023/07/12 07:05:44;;;;;;;3.45;1.80;;;22.70;69.50;;;;;;5075019;28;20048;-33
2023/07/12 07:08:11;;;;;;;4.15;1.60;;;23.50;78.10;;;;;;5073997;28;20131;-32
2023/07/12 07:10:38;;;;;;;3.50;1.58;;;24.10;66.20;;;;;;5080765;28;20044;-33
2023/07/12 07:13:05;;;;;;;2.97;1.55;;;;;;;;;;5090012;28;20119;-35
2023/07/12 07:15:31;;;;;;;3.92;1.73;;;23.30;78.50;;;;;;5094135;28;20051;-34
2023/07/12 07:17:58;;;;;;;3.30;1.70;;;22.60;77.40;;;;;;5094111;28;20084;-32
2023/07/12 07:20:25;;;;;;;4.30;1.80;;;22.60;77.60;;;;;;5084964;28;20052;-32
2023/07/12 07:22:53;;;;;;;3.92;1.80;;;22.80;77.60;;;;;;5073327;28;20057;-32
2023/07/12 07:25:20;;;;;;;4.13;1.70;;;23.20;78.50;;;;;;5073490;28;20506;-34
2023/07/12 07:27:47;;;;;;;3.63;1.58;;;;;;;;;;5081305;28;20127;-36
2023/07/12 07:30:14;;;;;;;2.90;1.50;;;23.40;64.10;;;;;;5092619;28;20048;-39
2023/07/12 07:32:41;;;;;;;3.97;1.80;;;;;;;;;;5093574;28;20564;-34
2023/07/12 07:35:08;;;;;;;5.00;1.75;;;23.10;77.90;;;;;;5093656;28;20467;-38
2023/07/12 07:37:35;;;;;;;4.25;1.88;;;;;;;;;;5077735;28;20139;-36
2023/07/12 07:40:04;;;;;;;4.18;1.98;;;23.40;69.10;;;;;;5072713;28;20144;-37
2023/07/12 07:42:31;;;;;;;3.97;1.70;;;;;;;;;;5073247;28;20128;-37
2023/07/12 07:44:58;;;;;;;5.25;2.13;;;23.90;78.80;;;;;;5073429;28;20131;-38
2023/07/12 07:47:25;;;;;;;4.43;1.90;;;23.60;78.60;;;;;;5073376;28;20127;-39
2023/07/12 07:49:52;;;;;;;6.68;2.55;;;;;;;;;;5073407;28;20054;-35
2023/07/12 07:52:18;;;;;;;4.93;1.90;;;23.80;78.10;;;;;;5073956;28;20131;-40
2023/07/12 07:54:45;;;;;;;5.40;1.80;;;23.80;78.70;;;;;;5088213;28;20127;-40
2023/07/12 07:57:14;;;;;;;3.10;1.80;;;22.40;77.20;;;;;;5093455;28;20056;-38
2023/07/12 07:59:40;;;;;;;3.53;1.92;;;24.60;78.30;;;;;;5093373;28;20043;-38
2023/07/12 08:02:09;;;;;;;3.60;2.00;;;23.00;77.30;;;;;;5092827;28;20056;-39
2023/07/12 08:04:36;;;;;;;4.00;1.83;;;23.70;74.30;;;;;;5072058;28;20595;-39
2023/07/12 08:07:03;;;;;;;5.22;2.08;;;23.20;77.50;;;;;;5072593;28;20082;-40
2023/07/12 08:09:30;;;;;;;4.25;1.88;;;;;;;;;;5072834;28;20573;-38
2023/07/12 08:11:57;;;;;;;4.28;2.03;;;23.00;77.50;;;;;;5073034;28;20131;-40
2023/07/12 08:14:27;;;;;;;3.90;2.00;;;23.60;62.60;;;;;;5072611;28;20136;-37
2023/07/12 08:16:54;;;;;;;4.03;2.00;;;;;;;;;;5072556;28;20054;-37
2023/07/12 08:19:22;;;;;;;3.65;1.88;;;23.60;77.30;;;;;;5072637;28;20123;-37
2023/07/12 08:21:49;;;;;;;4.43;1.90;;;;;;;;;;5072201;28;20500;-40
2023/07/12 08:24:16;;;;;;;3.85;1.83;;;24.30;77.90;;;;;;5081727;28;20048;-40
2023/07/12 08:26:43;;;;;;;4.45;2.10;;;;;;;;;;5076416;28;20052;-36
2023/07/12 08:29:09;;;;;;;2.67;1.63;;;23.70;77.40;;;;;;5074868;28;20044;-40
2023/07/12 08:31:38;;;;;;;4.03;2.10;;;23.90;77.10;;;;;;5081311;28;20048;-40
2023/07/12 08:34:05;;;;;;;4.25;2.10;;;;;;;;;;5092401;28;20131;-37
2023/07/12 08:36:32;;;;;;;4.28;1.90;;;23.90;77.20;;;;;;5092115;28;20079;-40
2023/07/12 08:38:58;;;;;;;4.93;2.17;;;23.70;77.30;;;;;;5092583;28;20075;-40
2023/07/12 08:41:26;;;;;;;4.15;2.08;;;;;;;;;;5092019;28;20135;-37
2023/07/12 08:43:53;;;;;;;4.32;1.95;;;23.70;77.30;;;;;;5091877;28;20044;-39
2023/07/12 08:46:21;;;;;;;4.88;2.03;;;23.50;69.00;;;;;;5092618;28;20043;-37
2023/07/12 08:48:51;;;;;;;3.03;1.70;;;25.00;72.90;;;;;;5079475;28;20138;-37
2023/07/12 08:51:20;;;;;;;3.20;1.67;;;23.30;71.90;;;;;;5092546;28;20135;-38
2023/07/12 08:53:47;;;;;;;4.80;2.10;;;23.60;77.00;;;;;;5091964;28;20052;-40
2023/07/12 08:56:14;;;;;;;5.55;1.95;;;23.70;67.30;;;;;;5092195;28;20127;-38
2023/07/12 08:58:43;;;;;;;4.15;1.90;;;24.20;67.90;;;;;;5092369;28;20238;-38
2023/07/12 09:01:12;;;;;;;4.00;1.95;;;23.20;75.70;;;;;;5092147;28;20055;-38
2023/07/12 09:03:39;;;;;;;2.97;1.58;;;24.20;76.90;;;;;;5091211;28;20044;-40
2023/07/12 09:06:11;;;;;;;3.17;1.77;;;24.00;61.90;;;;;;5092078;28;20074;-37
2023/07/12 09:08:39;;;;;;;4.70;1.92;;;24.10;61.90;;;;;;5092357;28;20147;-37
2023/07/12 09:11:06;;;;;;;4.40;1.83;;;;;;;;;;5091970;28;20132;-37
2023/07/12 09:13:33;;;;;;;3.10;1.70;;;23.80;64.00;;;;;;5091969;28;20087;-39
2023/07/12 09:16:00;;;;;;;4.70;2.20;;;;;;;;;;5085398;28;20047;-37
2023/07/12 09:18:29;;;;;;;4.90;1.98;;;24.20;68.80;;;;;;5078973;28;20047;-39
2023/07/12 09:20:56;;;;;;;3.13;1.65;;;24.20;76.60;;;;;;5080851;28;20520;-40
2023/07/12 09:23:24;;;;;;;4.03;1.90;;;23.30;75.70;;;;;;5071476;28;20049;-36
2023/07/12 09:25:55;;;;;;;4.30;1.98;;;23.50;76.90;;;;;;5071786;28;20404;-40
2023/07/12 09:28:22;;;;;;;5.05;2.15;;;24.00;76.80;;;;;;5071761;28;20131;-39
2023/07/12 09:30:50;;;;;;;3.85;1.92;;;24.10;63.00;;;;;;5072041;28;20124;-39
2023/07/12 09:33:19;;;;;;;3.17;1.92;;;23.10;73.60;;;;;;5089452;28;20119;-38
2023/07/12 09:35:46;;;;;;;4.45;2.08;;;24.10;61.70;;;;;;5091272;28;20044;-39
2023/07/12 09:38:14;;;;;;;4.53;1.80;;;24.70;62.00;;;;;;5090399;28;20059;-34
2023/07/12 09:40:43;;;;;;;5.05;2.20;;;24.10;61.70;;;;;;5091929;28;20048;-38
2023/07/12 09:43:17;;;;;;;4.13;2.10;;;23.60;76.20;;;;;;5088293;28;20123;-39
2023/07/12 09:45:46;;;;;;;5.05;2.00;;;24.20;76.50;;;;;;5080480;28;20044;-39
2023/07/12 09:48:21;;;;;;;6.00;2.30;;;24.00;61.70;;;;;;5080678;28;20127;-37
2023/07/12 09:50:51;;;;;;;7.32;2.50;;;24.00;61.80;;;;;;5090891;28;20135;-40
2023/07/12 09:53:21;;;;;;;6.10;2.22;;;24.60;76.50;;;;;;5091480;28;20054;-39
2023/07/12 09:55:52;;;;;;;6.03;2.10;;;24.10;64.00;;;;;;5091639;28;20131;-35
2023/07/12 09:58:22;;;;;;;6.38;2.13;;;23.80;76.80;;;;;;5091832;28;20081;-38
2023/07/12 10:00:54;;;;;;;5.85;2.10;;;23.70;76.30;;;;;;5079965;28;20119;-38
2023/07/12 10:03:22;;;;;;;4.28;2.20;;;24.50;76.80;;;;;;5082640;28;20056;-39
2023/07/12 10:05:53;;;;;;;4.45;2.00;;;23.70;61.90;;;;;;5095220;28;20127;-38
2023/07/12 10:08:20;;;;;;;6.22;2.58;;;23.00;72.60;;;;;;5077084;28;20528;-39
2023/07/12 10:10:50;;;;;;;4.20;2.15;;;23.70;76.80;;;;;;5075230;28;20136;-39
2023/07/12 10:13:36;;;;;;;3.25;2.08;;;24.40;77.90;;;;;;5085589;28;20044;-40
2023/07/12 10:16:04;;;;;;;4.03;2.05;;;23.80;71.90;;;;;;5077777;28;20132;-39
2023/07/12 10:18:33;;;;;;;3.58;2.10;;;24.80;77.00;;;;;;5095114;28;20052;-40
2023/07/12 10:20:59;;;;;;;3.17;1.80;;;23.80;76.40;;;;;;5094256;28;20091;-40
2023/07/12 10:23:31;;;;;;;4.05;2.00;;;23.90;65.30;;;;;;5081137;28;20140;-38
2023/07/12 10:26:00;;;;;;;4.57;1.98;;;23.80;77.30;;;;;;5082744;28;20123;-40
2023/07/12 10:28:34;;;;;;;3.70;2.08;;;23.50;77.00;;;;;;5084989;28;20512;-40
2023/07/12 10:31:03;;;;;;;3.30;2.00;;;23.20;76.30;;;;;;5083554;28;20045;-39
2023/07/12 10:33:31;;;;;;;2.63;1.77;;;25.00;70.60;;;;;;5085992;28;20048;-38
2023/07/12 10:36:00;;;;;;;3.78;2.00;;;23.90;76.60;;;;;;5080352;28;20119;-41
2023/07/12 10:38:28;;;;;;;3.35;1.77;;;;;;;;;;5079103;28;20512;-37
2023/07/12 10:40:56;;;;;;;5.25;2.28;;;23.40;67.30;;;;;;5092706;28;20059;-40
2023/07/12 10:43:27;;;;;;;6.50;2.00;;;24.80;65.60;;;;;;5094455;28;20050;-39
2023/07/12 10:45:55;;;;;;;5.22;2.00;;;24.00;68.80;;;;;;5094399;28;20173;-41
2023/07/12 10:48:24;;;;;;;4.22;2.00;;;23.70;76.80;;;;;;5094183;28;20062;-39
2023/07/12 10:50:51;;;;;;;5.63;2.00;;;24.20;63.00;;;;;;5093949;28;20048;-38
2023/07/12 10:53:20;;;;;;;5.53;2.00;;;25.40;77.50;;;;;;5074464;28;20127;-40
2023/07/12 10:55:48;;;;;;;5.13;2.10;;;24.50;62.30;;;;;;5074221;28;20055;-40
2023/07/12 10:58:28;;;;;;;6.18;2.50;;;23.40;76.60;;;;;;5073882;28;20601;-40
2023/07/12 11:00:56;;;;;;;3.67;1.70;;;24.10;76.60;;;;;;5074364;28;20048;-40
2023/07/12 11:03:32;;;;;;;5.28;1.95;;;24.60;77.30;;;;;;5073709;28;20127;-41
2023/07/12 11:06:04;;;;;;;5.28;2.15;;;23.90;77.10;;;;;;5073828;28;20052;-41
2023/07/12 11:08:38;;;;;;;3.53;1.90;;;24.10;76.60;;;;;;5074828;28;20048;-40
2023/07/12 11:11:36;;;;;;;4.43;1.90;;;24.30;76.40;;;;;;5074066;28;20131;-41
2023/07/12 11:14:24;;;;;;;3.63;1.50;;;24.50;74.00;;;;;;5090767;28;20140;-40
2023/07/12 11:16:53;;;;;;;2.90;1.60;;;25.40;77.40;;;;;;5093904;28;20048;-40
2023/07/12 11:19:35;;;;;;;3.85;1.90;;;24.50;61.60;;;;;;5093110;28;20052;-37
2023/07/12 11:22:12;;;;;;;5.30;1.80;;;24.30;68.50;;;;;;5086032;28;20066;-37
2023/07/12 11:24:39;;;;;;;4.50;1.90;;;24.30;71.60;;;;;;5072648;28;20051;-41
2023/07/12 11:27:09;;;;;;;4.43;1.90;;;24.40;76.70;;;;;;5072966;28;20710;-41
2023/07/12 11:29:39;;;;;;;6.82;2.00;;;24.50;61.60;;;;;;5073476;28;20044;-37
2023/07/12 11:32:12;;;;;;;4.57;1.80;;;24.50;61.60;;;;;;5078446;28;20509;-38
2023/07/12 11:34:39;;;;;;;3.35;1.80;;;24.80;72.20;;;;;;5073008;28;20131;-38
2023/07/12 11:37:10;;;;;;;3.60;1.80;;;24.50;61.50;;;;;;5075532;28;20048;-36
2023/07/12 11:39:37;;;;;;;3.17;1.60;;;;;;;;;;5082830;28;20134;-35
2023/07/12 11:42:08;;;;;;;3.13;1.70;;;24.60;68.10;;;;;;5078099;28;20052;-34
2023/07/12 11:44:36;;;;;;;3.58;1.80;;;24.10;62.60;;;;;;5085630;28;20040;-37
2023/07/12 11:47:04;;;;;;;3.38;1.98;;;;;;;;;;5093262;28;20560;-35
2023/07/12 11:49:32;;;;;;;2.67;1.70;;;;;;;;;;5093282;28;20062;-37
2023/07/12 11:52:02;;;;;;;3.08;1.50;;;24.50;76.00;;;;;;5093256;28;20054;-34
2023/07/12 11:54:35;;;;;;;3.70;1.80;;;24.10;68.40;;;;;;5091549;28;20044;-33
2023/07/12 11:57:02;;;;;;;3.90;1.65;;;25.80;76.60;;;;;;5082913;28;20123;-33
2023/07/12 11:59:30;;;;;;;1.88;1.40;;;24.60;65.40;;;;;;5072827;28;20548;-33
2023/07/12 12:01:58;;;;;;;3.60;1.60;;;24.50;61.40;;;;;;5073112;28;20083;-35
2023/07/12 12:04:28;;;;;;;2.42;1.45;;;24.50;61.30;;;;;;5072404;28;20048;-35
2023/07/12 12:06:56;;;;;;;2.75;1.60;;;24.50;61.30;;;;;;5073181;28;20048;-37
2023/07/12 12:09:25;;;;;;;2.22;1.48;;;24.60;64.20;;;;;;5083517;28;20048;-33
2023/07/12 12:11:54;;;;;;;2.72;1.60;;;24.50;75.70;;;;;;5091175;28;20131;-33
2023/07/12 12:14:28;;;;;;;2.40;1.45;;;23.90;76.30;;;;;;5072512;28;20052;-33
2023/07/12 12:16:56;;;;;;;3.08;1.50;;;;;;;;;;5072415;28;20596;-34
2023/07/12 12:19:28;;;;;;;2.22;1.27;;;24.30;75.70;;;;;;5072890;28;20056;-34
2023/07/12 12:22:01;;;;;;;2.63;1.48;;;25.10;75.50;;;;;;5072608;28;20086;-33
2023/07/12 12:24:27;;;;;;;2.78;1.50;;;25.30;76.50;;;;;;5072287;28;20059;-33
2023/07/12 12:26:54;;;;;;;3.08;1.50;;;24.40;65.30;;;;;;5071547;28;20390;-34
2023/07/12 12:29:22;;;;;;;2.92;1.50;;;24.30;75.50;;;;;;5073348;28;20135;-33
2023/07/12 12:31:53;;;;;;;2.42;1.52;;;24.60;70.20;;;;;;5078020;28;20127;-33
2023/07/12 12:34:19;;;;;;;2.58;1.50;;;24.50;75.80;;;;;;5092600;28;20091;-33
2023/07/12 12:36:58;;;;;;;2.72;1.60;;;24.50;61.30;;;;;;5091815;28;20122;-35
2023/07/12 12:39:25;;;;;;;2.65;1.58;;;;;;;;;;5092050;28;20059;-34
2023/07/12 12:41:53;;;;;;;2.20;1.40;;;24.50;75.70;;;;;;5092535;28;20048;-33
2023/07/12 12:44:21;;;;;;;2.38;1.30;;;;;;;;;;5089050;28;20044;-36
2023/07/12 12:46:50;;;;;;;2.08;1.50;;;24.70;64.20;;;;;;5071834;28;20127;-34
2023/07/12 12:49:22;;;;;;;2.28;1.40;;;24.50;76.20;;;;;;5070297;28;20052;-35
2023/07/12 12:51:50;;;;;;;2.67;1.60;;;25.30;69.10;;;;;;5071683;28;20564;-33
2023/07/12 12:54:18;;;;;;;1.75;1.38;;;24.60;61.40;;;;;;5070653;28;20049;-37
2023/07/12 12:56:45;;;;;;;2.47;1.60;;;;;;;;;;5071671;28;20051;-36
2023/07/12 12:59:12;;;;;;;2.13;1.40;;;24.20;75.60;;;;;;5071917;28;20508;-33
2023/07/12 13:01:39;;;;;;;2.97;1.40;;;;;;;;;;5073059;28;20127;-37
2023/07/12 13:04:06;;;;;;;2.55;1.48;;;24.20;76.40;;;;;;5071764;28;20044;-34
2023/07/12 13:06:33;;;;;;;2.08;1.40;;;24.10;72.40;;;;;;5089961;28;20390;-33
2023/07/12 13:09:00;;;;;;;3.28;1.60;;;;;;;;;;5092043;28;20131;-33
2023/07/12 13:11:28;;;;;;;3.70;1.30;;;24.70;61.70;;;;;;5092038;28;20134;-36